sensor_id;sensor_type;location;lat;lon;timestamp;temperature;humidity
15184;DHT22;7693;49.266;7.104;2023-07-20T04:42:21;15.40;96.20
15184;DHT22;7693;49.266;7.104;2023-07-20T04:44:47;15.40;97.30
15184;DHT22;7693;49.266;7.104;2023-07-20T04:47:12;15.50;97.60
15184;DHT22;7693;49.266;7.104;2023-07-20T04:49:38;15.60;97.80
15184;DHT22;7693;49.266;7.104;2023-07-20T04:52:04;15.70;98.00
15184;DHT22;7693;49.266;7.104;2023-07-20T04:54:30;15.80;98.20
15184;DHT22;7693;49.266;7.104;2023-07-20T04:56:56;15.90;98.40
15184;DHT22;7693;49.266;7.104;2023-07-20T04:59:21;15.90;98.50
15184;DHT22;7693;49.266;7.104;2023-07-20T05:01:47;16.00;98.70
15184;DHT22;7693;49.266;7.104;2023-07-20T05:04:12;16.10;98.80
15184;DHT22;7693;49.266;7.104;2023-07-20T05:06:38;16.10;98.80
15184;DHT22;7693;49.266;7.104;2023-07-20T05:09:04;16.20;98.90
15184;DHT22;7693;49.266;7.104;2023-07-20T05:11:32;16.30;99.10
15184;DHT22;7693;49.266;7.104;2023-07-20T05:13:57;16.40;99.10
15184;DHT22;7693;49.266;7.104;2023-07-20T05:16:23;16.50;99.20
15184;DHT22;7693;49.266;7.104;2023-07-20T05:18:48;16.50;99.40
15184;DHT22;7693;49.266;7.104;2023-07-20T05:21:14;16.60;99.40
15184;DHT22;7693;49.266;7.104;2023-07-20T05:23:39;16.70;99.40
15184;DHT22;7693;49.266;7.104;2023-07-20T05:26:05;16.80;99.50
15184;DHT22;7693;49.266;7.104;2023-07-20T05:28:31;16.90;99.60
15184;DHT22;7693;49.266;7.104;2023-07-20T05:30:57;17.00;99.60
15184;DHT22;7693;49.266;7.104;2023-07-20T05:33:25;17.00;99.50
15184;DHT22;7693;49.266;7.104;2023-07-20T05:35:50;17.10;99.60
15184;DHT22;7693;49.266;7.104;2023-07-20T05:38:16;17.10;99.60
15184;DHT22;7693;49.266;7.104;2023-07-20T05:40:43;17.10;99.50
15184;DHT22;7693;49.266;7.104;2023-07-20T05:43:09;17.10;99.70
15184;DHT22;7693;49.266;7.104;2023-07-20T05:45:35;17.20;99.80
15184;DHT22;7693;49.266;7.104;2023-07-20T05:48:01;17.20;99.80
15184;DHT22;7693;49.266;7.104;2023-07-20T05:50:26;17.30;99.90
15184;DHT22;7693;49.266;7.104;2023-07-20T05:52:53;17.30;99.90
15184;DHT22;7693;49.266;7.104;2023-07-20T05:55:19;17.40;99.90
15184;DHT22;7693;49.266;7.104;2023-07-20T05:57:45;17.50;99.90
15184;DHT22;7693;49.266;7.104;2023-07-20T06:00:11;17.60;99.90
15184;DHT22;7693;49.266;7.104;2023-07-20T06:02:38;17.60;99.90
15184;DHT22;7693;49.266;7.104;2023-07-20T06:05:05;17.60;99.90
15184;DHT22;7693;49.266;7.104;2023-07-20T06:07:31;17.60;99.90
15184;DHT22;7693;49.266;7.104;2023-07-20T06:09:57;17.70;99.90
15184;DHT22;7693;49.266;7.104;2023-07-20T06:12:23;17.80;99.90
15184;DHT22;7693;49.266;7.104;2023-07-20T06:14:49;17.80;99.90
15184;DHT22;7693;49.266;7.104;2023-07-20T06:17:14;17.90;99.90
15184;DHT22;7693;49.266;7.104;2023-07-20T06:19:40;17.90;99.90
15184;DHT22;7693;49.266;7.104;2023-07-20T06:22:06;18.00;99.90
15184;DHT22;7693;49.266;7.104;2023-07-20T06:24:31;18.00;99.90
15184;DHT22;7693;49.266;7.104;2023-07-20T06:26:57;18.10;99.90
15184;DHT22;7693;49.266;7.104;2023-07-20T06:29:22;18.20;99.90
15184;DHT22;7693;49.266;7.104;2023-07-20T06:31:48;18.20;99.90
15184;DHT22;7693;49.266;7.104;2023-07-20T06:34:13;18.30;99.90
15184;DHT22;7693;49.266;7.104;2023-07-20T06:36:39;18.30;99.90
15184;DHT22;7693;49.266;7.104;2023-07-20T06:39:05;18.40;99.90
15184;DHT22;7693;49.266;7.104;2023-07-20T06:41:30;18.40;99.90
15184;DHT22;7693;49.266;7.104;2023-07-20T06:43:58;18.50;99.90
15184;DHT22;7693;49.266;7.104;2023-07-20T06:46:27;18.50;99.90
15184;DHT22;7693;49.266;7.104;2023-07-20T06:48:53;18.60;99.90
15184;DHT22;7693;49.266;7.104;2023-07-20T06:51:20;18.70;99.90
15184;DHT22;7693;49.266;7.104;2023-07-20T06:53:48;18.80;99.90
15184;DHT22;7693;49.266;7.104;2023-07-20T06:56:14;18.80;99.90
15184;DHT22;7693;49.266;7.104;2023-07-20T06:58:39;18.80;99.90
15184;DHT22;7693;49.266;7.104;2023-07-20T07:01:08;18.90;99.90
15184;DHT22;7693;49.266;7.104;2023-07-20T07:03:34;19.00;99.90
15184;DHT22;7693;49.266;7.104;2023-07-20T07:06:00;19.00;99.90
15184;DHT22;7693;49.266;7.104;2023-07-20T07:08:26;19.00;99.90
15184;DHT22;7693;49.266;7.104;2023-07-20T07:10:52;19.10;99.90
15184;DHT22;7693;49.266;7.104;2023-07-20T07:13:18;19.10;99.90
15184;DHT22;7693;49.266;7.104;2023-07-20T07:15:44;19.20;99.90
15184;DHT22;7693;49.266;7.104;2023-07-20T07:18:10;19.20;99.90
15184;DHT22;7693;49.266;7.104;2023-07-20T07:20:36;19.30;99.90
15184;DHT22;7693;49.266;7.104;2023-07-20T07:23:02;19.30;99.90
15184;DHT22;7693;49.266;7.104;2023-07-20T07:25:27;19.40;99.90
15184;DHT22;7693;49.266;7.104;2023-07-20T07:27:54;19.50;99.90
15184;DHT22;7693;49.266;7.104;2023-07-20T07:30:20;19.50;99.90
15184;DHT22;7693;49.266;7.104;2023-07-20T07:32:46;19.50;99.90
15184;DHT22;7693;49.266;7.104;2023-07-20T07:35:12;19.60;99.90
15184;DHT22;7693;49.266;7.104;2023-07-20T07:37:38;19.60;99.90
15184;DHT22;7693;49.266;7.104;2023-07-20T07:40:04;19.70;99.90
15184;DHT22;7693;49.266;7.104;2023-07-20T07:42:31;19.80;99.90
15184;DHT22;7693;49.266;7.104;2023-07-20T07:44:56;19.80;99.80
15184;DHT22;7693;49.266;7.104;2023-07-20T07:47:22;19.90;99.70
15184;DHT22;7693;49.266;7.104;2023-07-20T07:49:47;20.00;99.50
15184;DHT22;7693;49.266;7.104;2023-07-20T07:52:13;20.00;99.50
15184;DHT22;7693;49.266;7.104;2023-07-20T07:54:39;20.10;99.60
15184;DHT22;7693;49.266;7.104;2023-07-20T07:57:05;20.20;99.60
15184;DHT22;7693;49.266;7.104;2023-07-20T07:59:31;20.20;99.50
15184;DHT22;7693;49.266;7.104;2023-07-20T08:02:02;20.30;99.50
15184;DHT22;7693;49.266;7.104;2023-07-20T08:04:28;20.40;99.20
15184;DHT22;7693;49.266;7.104;2023-07-20T08:06:53;20.40;99.10
15184;DHT22;7693;49.266;7.104;2023-07-20T08:09:19;20.50;99.20
15184;DHT22;7693;49.266;7.104;2023-07-20T08:11:47;20.50;99.00
15184;DHT22;7693;49.266;7.104;2023-07-20T08:14:13;20.50;98.80
15184;DHT22;7693;49.266;7.104;2023-07-20T08:16:42;20.60;98.90
15184;DHT22;7693;49.266;7.104;2023-07-20T08:19:08;20.60;98.90
15184;DHT22;7693;49.266;7.104;2023-07-20T08:21:34;20.60;98.40
15184;DHT22;7693;49.266;7.104;2023-07-20T08:23:59;20.70;98.60
15184;DHT22;7693;49.266;7.104;2023-07-20T08:26:25;20.70;98.80
15184;DHT22;7693;49.266;7.104;2023-07-20T08:28:50;20.80;98.80
15184;DHT22;7693;49.266;7.104;2023-07-20T08:31:16;20.90;98.70
15184;DHT22;7693;49.266;7.104;2023-07-20T08:33:41;21.10;98.60
15184;DHT22;7693;49.266;7.104;2023-07-20T08:36:08;21.20;98.70
15184;DHT22;7693;49.266;7.104;2023-07-20T08:38:34;21.20;98.00
15184;DHT22;7693;49.266;7.104;2023-07-20T08:40:59;21.20;97.90
15184;DHT22;7693;49.266;7.104;2023-07-20T08:43:27;21.20;97.90
15184;DHT22;7693;49.266;7.104;2023-07-20T08:45:56;21.20;97.90
15184;DHT22;7693;49.266;7.104;2023-07-20T08:48:24;21.20;97.90
15184;DHT22;7693;49.266;7.104;2023-07-20T08:50:51;21.30;97.60
15184;DHT22;7693;49.266;7.104;2023-07-20T08:53:17;21.30;97.40
15184;DHT22;7693;49.266;7.104;2023-07-20T08:55:44;21.30;97.30
15184;DHT22;7693;49.266;7.104;2023-07-20T08:58:12;21.40;97.40
15184;DHT22;7693;49.266;7.104;2023-07-20T09:00:40;21.60;97.30
15184;DHT22;7693;49.266;7.104;2023-07-20T09:03:06;21.60;97.00
15184;DHT22;7693;49.266;7.104;2023-07-20T09:05:32;21.60;97.10
15184;DHT22;7693;49.266;7.104;2023-07-20T09:07:57;21.70;97.10
15184;DHT22;7693;49.266;7.104;2023-07-20T09:10:24;21.80;97.00
15184;DHT22;7693;49.266;7.104;2023-07-20T09:12:50;21.90;97.00
15184;DHT22;7693;49.266;7.104;2023-07-20T09:15:16;21.90;97.40
15184;DHT22;7693;49.266;7.104;2023-07-20T09:17:46;22.10;96.60
15184;DHT22;7693;49.266;7.104;2023-07-20T09:20:15;22.10;96.40
15184;DHT22;7693;49.266;7.104;2023-07-20T09:22:42;22.10;96.30
15184;DHT22;7693;49.266;7.104;2023-07-20T09:25:11;22.20;96.50
15184;DHT22;7693;49.266;7.104;2023-07-20T09:27:40;22.40;96.40
15184;DHT22;7693;49.266;7.104;2023-07-20T09:30:06;22.50;96.00
15184;DHT22;7693;49.266;7.104;2023-07-20T09:35:19;22.70;96.20
15184;DHT22;7693;49.266;7.104;2023-07-20T09:38:01;22.70;95.10
15184;DHT22;7693;49.266;7.104;2023-07-20T09:40:27;22.60;95.10
15184;DHT22;7693;49.266;7.104;2023-07-20T09:42:54;22.60;95.10
15184;DHT22;7693;49.266;7.104;2023-07-20T09:45:29;22.60;94.70
15184;DHT22;7693;49.266;7.104;2023-07-20T09:48:03;22.50;95.00
15184;DHT22;7693;49.266;7.104;2023-07-20T09:50:30;22.60;95.40
15184;DHT22;7693;49.266;7.104;2023-07-20T09:52:56;22.60;94.90
15184;DHT22;7693;49.266;7.104;2023-07-20T09:55:22;22.70;94.80
15184;DHT22;7693;49.266;7.104;2023-07-20T09:57:49;22.80;95.10
15184;DHT22;7693;49.266;7.104;2023-07-20T12:57:17;25.60;81.20
15184;DHT22;7693;49.266;7.104;2023-07-20T12:59:42;25.70;81.30
15184;DHT22;7693;49.266;7.104;2023-07-20T13:02:08;25.70;80.70
15184;DHT22;7693;49.266;7.104;2023-07-20T13:04:33;25.60;80.40
15184;DHT22;7693;49.266;7.104;2023-07-20T13:06:59;25.70;79.30
15184;DHT22;7693;49.266;7.104;2023-07-20T13:09:25;25.70;79.80
15184;DHT22;7693;49.266;7.104;2023-07-20T13:11:51;25.80;78.60
15184;DHT22;7693;49.266;7.104;2023-07-20T13:14:18;25.80;78.70
15184;DHT22;7693;49.266;7.104;2023-07-20T13:16:43;26.00;77.80
15184;DHT22;7693;49.266;7.104;2023-07-20T13:19:09;26.10;78.10
15184;DHT22;7693;49.266;7.104;2023-07-20T13:21:34;26.10;76.50
15184;DHT22;7693;49.266;7.104;2023-07-20T13:24:00;26.10;76.90
15184;DHT22;7693;49.266;7.104;2023-07-20T13:26:25;26.10;76.80
15184;DHT22;7693;49.266;7.104;2023-07-20T13:28:51;26.10;76.40
15184;DHT22;7693;49.266;7.104;2023-07-20T13:31:17;26.10;76.50
15184;DHT22;7693;49.266;7.104;2023-07-20T13:33:43;26.10;75.60
15184;DHT22;7693;49.266;7.104;2023-07-20T13:36:08;25.90;75.10
15184;DHT22;7693;49.266;7.104;2023-07-20T13:38:34;25.70;75.10
15184;DHT22;7693;49.266;7.104;2023-07-20T13:40:59;25.50;75.20
15184;DHT22;7693;49.266;7.104;2023-07-20T13:43:25;25.40;75.00
15184;DHT22;7693;49.266;7.104;2023-07-20T13:45:50;25.20;74.40
15184;DHT22;7693;49.266;7.104;2023-07-20T13:48:16;25.10;74.90
15184;DHT22;7693;49.266;7.104;2023-07-20T13:50:45;25.10;75.40
15184;DHT22;7693;49.266;7.104;2023-07-20T13:53:11;25.20;76.50
15184;DHT22;7693;49.266;7.104;2023-07-20T13:55:37;25.40;75.50
15184;DHT22;7693;49.266;7.104;2023-07-20T13:58:03;25.50;75.50
15184;DHT22;7693;49.266;7.104;2023-07-20T14:00:30;25.60;75.70
15184;DHT22;7693;49.266;7.104;2023-07-20T14:03:01;25.70;75.10
15184;DHT22;7693;49.266;7.104;2023-07-20T14:05:26;25.60;73.90
15184;DHT22;7693;49.266;7.104;2023-07-20T14:07:53;25.40;73.70
15184;DHT22;7693;49.266;7.104;2023-07-20T14:10:19;25.30;73.80
15184;DHT22;7693;49.266;7.104;2023-07-20T14:12:45;25.10;73.60
15184;DHT22;7693;49.266;7.104;2023-07-20T14:15:11;25.00;73.00
15184;DHT22;7693;49.266;7.104;2023-07-20T14:17:36;25.00;74.30
15184;DHT22;7693;49.266;7.104;2023-07-20T14:20:02;25.30;75.30
15184;DHT22;7693;49.266;7.104;2023-07-20T14:22:31;25.50;73.50
15184;DHT22;7693;49.266;7.104;2023-07-20T14:24:56;25.50;72.80
15184;DHT22;7693;49.266;7.104;2023-07-20T14:27:22;25.60;73.60
15184;DHT22;7693;49.266;7.104;2023-07-20T14:29:48;25.70;73.30
15184;DHT22;7693;49.266;7.104;2023-07-20T14:32:13;25.70;73.40
15184;DHT22;7693;49.266;7.104;2023-07-20T14:34:39;25.80;73.50
15184;DHT22;7693;49.266;7.104;2023-07-20T14:37:06;26.00;73.10
15184;DHT22;7693;49.266;7.104;2023-07-20T14:39:32;26.10;72.80
15184;DHT22;7693;49.266;7.104;2023-07-20T14:41:58;26.30;73.00
15184;DHT22;7693;49.266;7.104;2023-07-20T14:44:23;26.50;72.80
15184;DHT22;7693;49.266;7.104;2023-07-20T14:46:50;26.60;72.80
15184;DHT22;7693;49.266;7.104;2023-07-20T14:49:16;26.60;72.20
15184;DHT22;7693;49.266;7.104;2023-07-20T14:51:43;26.60;71.50
15184;DHT22;7693;49.266;7.104;2023-07-20T14:54:12;26.50;70.60
15184;DHT22;7693;49.266;7.104;2023-07-20T14:56:38;26.50;70.30
15184;DHT22;7693;49.266;7.104;2023-07-20T14:59:04;26.40;69.70
15184;DHT22;7693;49.266;7.104;2023-07-20T15:01:31;26.30;69.60
15184;DHT22;7693;49.266;7.104;2023-07-20T15:03:57;26.10;70.10
15184;DHT22;7693;49.266;7.104;2023-07-20T15:06:23;26.10;70.30
15184;DHT22;7693;49.266;7.104;2023-07-20T15:08:48;26.10;69.70
15184;DHT22;7693;49.266;7.104;2023-07-20T15:11:14;26.00;70.50
15184;DHT22;7693;49.266;7.104;2023-07-20T15:13:40;26.00;69.50
15184;DHT22;7693;49.266;7.104;2023-07-20T15:16:08;25.90;69.40
15184;DHT22;7693;49.266;7.104;2023-07-20T15:18:34;25.80;69.90
15184;DHT22;7693;49.266;7.104;2023-07-20T15:21:00;25.80;69.20
15184;DHT22;7693;49.266;7.104;2023-07-20T15:23:25;25.70;69.30
15184;DHT22;7693;49.266;7.104;2023-07-20T15:25:51;25.60;69.70
15184;DHT22;7693;49.266;7.104;2023-07-20T15:28:17;25.60;69.30
15184;DHT22;7693;49.266;7.104;2023-07-20T15:30:42;25.40;68.70
15184;DHT22;7693;49.266;7.104;2023-07-20T15:33:08;25.30;68.60
15184;DHT22;7693;49.266;7.104;2023-07-20T15:35:33;25.30;69.10
15184;DHT22;7693;49.266;7.104;2023-07-20T15:37:59;25.30;69.50
15184;DHT22;7693;49.266;7.104;2023-07-20T15:40:25;25.30;69.60
15184;DHT22;7693;49.266;7.104;2023-07-20T15:42:50;25.30;69.00
15184;DHT22;7693;49.266;7.104;2023-07-20T15:45:16;25.20;69.00
15184;DHT22;7693;49.266;7.104;2023-07-20T15:47:41;25.20;69.00
15184;DHT22;7693;49.266;7.104;2023-07-20T15:50:07;25.20;69.10
15184;DHT22;7693;49.266;7.104;2023-07-20T15:52:33;25.10;68.80
15184;DHT22;7693;49.266;7.104;2023-07-20T15:54:58;25.10;68.90
15184;DHT22;7693;49.266;7.104;2023-07-20T15:57:24;25.00;68.60
15184;DHT22;7693;49.266;7.104;2023-07-20T15:59:49;25.00;68.90
15184;DHT22;7693;49.266;7.104;2023-07-20T16:02:15;25.10;68.90
15184;DHT22;7693;49.266;7.104;2023-07-20T16:04:41;25.00;68.60
15184;DHT22;7693;49.266;7.104;2023-07-20T16:07:10;25.10;69.20
15184;DHT22;7693;49.266;7.104;2023-07-20T16:09:36;25.20;68.90
15184;DHT22;7693;49.266;7.104;2023-07-20T16:12:03;25.20;69.00
15184;DHT22;7693;49.266;7.104;2023-07-20T16:14:28;25.30;68.70
15184;DHT22;7693;49.266;7.104;2023-07-20T16:16:54;25.30;68.60
15184;DHT22;7693;49.266;7.104;2023-07-20T16:19:20;25.30;68.80
15184;DHT22;7693;49.266;7.104;2023-07-20T16:21:46;25.40;69.00
15184;DHT22;7693;49.266;7.104;2023-07-20T16:24:12;25.40;68.30
15184;DHT22;7693;49.266;7.104;2023-07-20T16:26:38;25.40;67.80
15184;DHT22;7693;49.266;7.104;2023-07-20T16:29:09;25.30;68.10
15184;DHT22;7693;49.266;7.104;2023-07-20T16:31:35;25.30;67.70
15184;DHT22;7693;49.266;7.104;2023-07-20T16:34:00;25.20;67.30
15184;DHT22;7693;49.266;7.104;2023-07-20T16:36:26;25.20;67.50
15184;DHT22;7693;49.266;7.104;2023-07-20T16:38:52;25.10;67.50
15184;DHT22;7693;49.266;7.104;2023-07-20T16:41:17;25.10;67.70
15184;DHT22;7693;49.266;7.104;2023-07-20T16:43:43;25.20;67.70
15184;DHT22;7693;49.266;7.104;2023-07-20T16:46:09;25.20;67.80
15184;DHT22;7693;49.266;7.104;2023-07-20T16:48:35;25.20;67.40
15184;DHT22;7693;49.266;7.104;2023-07-20T16:51:02;25.20;67.50
15184;DHT22;7693;49.266;7.104;2023-07-20T16:53:28;25.20;67.40
15184;DHT22;7693;49.266;7.104;2023-07-20T16:55:54;25.20;67.30
15184;DHT22;7693;49.266;7.104;2023-07-20T16:58:23;25.20;67.50
15184;DHT22;7693;49.266;7.104;2023-07-20T17:00:50;25.30;67.60
15184;DHT22;7693;49.266;7.104;2023-07-20T17:03:16;25.30;67.40
15184;DHT22;7693;49.266;7.104;2023-07-20T17:05:43;25.30;67.10
15184;DHT22;7693;49.266;7.104;2023-07-20T17:08:08;25.20;66.90
15184;DHT22;7693;49.266;7.104;2023-07-20T17:10:36;25.20;67.10
15184;DHT22;7693;49.266;7.104;2023-07-20T17:13:01;25.20;67.30
15184;DHT22;7693;49.266;7.104;2023-07-20T17:15:28;25.20;67.50
15184;DHT22;7693;49.266;7.104;2023-07-20T17:17:54;25.20;66.90
15184;DHT22;7693;49.266;7.104;2023-07-20T17:20:20;25.10;66.60
15184;DHT22;7693;49.266;7.104;2023-07-20T17:22:46;25.00;66.50
15184;DHT22;7693;49.266;7.104;2023-07-20T17:25:12;25.00;66.70
15184;DHT22;7693;49.266;7.104;2023-07-20T17:27:38;24.90;66.50
15184;DHT22;7693;49.266;7.104;2023-07-20T17:30:07;24.90;66.90
15184;DHT22;7693;49.266;7.104;2023-07-20T17:32:33;24.90;66.80
15184;DHT22;7693;49.266;7.104;2023-07-20T17:34:59;24.90;66.90
15184;DHT22;7693;49.266;7.104;2023-07-20T17:37:24;24.90;66.50
15184;DHT22;7693;49.266;7.104;2023-07-20T17:39:50;24.80;66.60
15184;DHT22;7693;49.266;7.104;2023-07-20T17:42:16;24.80;66.70
15184;DHT22;7693;49.266;7.104;2023-07-20T17:44:42;24.80;66.80
15184;DHT22;7693;49.266;7.104;2023-07-20T17:47:08;24.80;66.50
15184;DHT22;7693;49.266;7.104;2023-07-20T17:49:33;24.70;66.40
15184;DHT22;7693;49.266;7.104;2023-07-20T17:51:59;24.70;66.20
15184;DHT22;7693;49.266;7.104;2023-07-20T17:54:25;24.70;66.60
15184;DHT22;7693;49.266;7.104;2023-07-20T17:56:51;24.60;66.50
15184;DHT22;7693;49.266;7.104;2023-07-20T17:59:16;24.60;66.60
15184;DHT22;7693;49.266;7.104;2023-07-20T18:01:42;24.60;66.70
15184;DHT22;7693;49.266;7.104;2023-07-20T18:04:07;24.60;66.30
15184;DHT22;7693;49.266;7.104;2023-07-20T18:06:33;24.60;66.50
15184;DHT22;7693;49.266;7.104;2023-07-20T18:08:58;24.50;66.30
15184;DHT22;7693;49.266;7.104;2023-07-20T18:11:24;24.50;66.40
15184;DHT22;7693;49.266;7.104;2023-07-20T18:13:49;24.50;66.50
15184;DHT22;7693;49.266;7.104;2023-07-20T18:16:15;24.50;66.60
15184;DHT22;7693;49.266;7.104;2023-07-20T18:18:41;24.40;66.70
15184;DHT22;7693;49.266;7.104;2023-07-20T18:21:07;24.40;66.70
15184;DHT22;7693;49.266;7.104;2023-07-20T18:23:32;24.40;66.50
15184;DHT22;7693;49.266;7.104;2023-07-20T18:25:58;24.40;66.50
15184;DHT22;7693;49.266;7.104;2023-07-20T18:28:23;24.30;66.60
15184;DHT22;7693;49.266;7.104;2023-07-20T18:30:49;24.30;66.60
15184;DHT22;7693;49.266;7.104;2023-07-20T18:33:16;24.20;66.60
15184;DHT22;7693;49.266;7.104;2023-07-20T18:35:41;24.20;66.60
15184;DHT22;7693;49.266;7.104;2023-07-20T18:38:07;24.20;66.80
15184;DHT22;7693;49.266;7.104;2023-07-20T18:40:33;24.10;66.80
15184;DHT22;7693;49.266;7.104;2023-07-20T18:42:59;24.00;66.60
15184;DHT22;7693;49.266;7.104;2023-07-20T18:45:24;24.00;66.70
15184;DHT22;7693;49.266;7.104;2023-07-20T18:47:50;24.00;66.90
15184;DHT22;7693;49.266;7.104;2023-07-20T18:50:17;23.90;66.80
15184;DHT22;7693;49.266;7.104;2023-07-20T18:52:42;23.90;66.90
15184;DHT22;7693;49.266;7.104;2023-07-20T18:55:09;23.90;67.00
15184;DHT22;7693;49.266;7.104;2023-07-20T18:57:35;23.90;67.00
15184;DHT22;7693;49.266;7.104;2023-07-20T19:00:04;23.80;66.90
15184;DHT22;7693;49.266;7.104;2023-07-20T19:02:30;23.70;67.10
15184;DHT22;7693;49.266;7.104;2023-07-20T19:04:55;23.70;67.20
15184;DHT22;7693;49.266;7.104;2023-07-20T19:07:23;23.60;67.40
15184;DHT22;7693;49.266;7.104;2023-07-20T19:09:49;23.60;67.30
15184;DHT22;7693;49.266;7.104;2023-07-20T19:12:14;23.50;67.40
15184;DHT22;7693;49.266;7.104;2023-07-20T19:14:40;23.50;67.60
15184;DHT22;7693;49.266;7.104;2023-07-20T19:17:06;23.40;67.50
15184;DHT22;7693;49.266;7.104;2023-07-20T19:19:32;23.30;67.80
15184;DHT22;7693;49.266;7.104;2023-07-20T19:21:58;23.20;67.80
15184;DHT22;7693;49.266;7.104;2023-07-20T19:24:24;23.20;68.10
15184;DHT22;7693;49.266;7.104;2023-07-20T19:26:50;23.10;68.10
15184;DHT22;7693;49.266;7.104;2023-07-20T19:29:15;23.00;68.10
15184;DHT22;7693;49.266;7.104;2023-07-20T19:31:41;22.90;68.40
15184;DHT22;7693;49.266;7.104;2023-07-20T19:34:07;22.80;68.50
15184;DHT22;7693;49.266;7.104;2023-07-20T19:36:33;22.80;68.80
15184;DHT22;7693;49.266;7.104;2023-07-20T19:38:59;22.70;69.00
15184;DHT22;7693;49.266;7.104;2023-07-20T19:41:25;22.70;69.20
15184;DHT22;7693;49.266;7.104;2023-07-20T19:43:51;22.60;69.20
15184;DHT22;7693;49.266;7.104;2023-07-20T19:46:16;22.60;69.30
15184;DHT22;7693;49.266;7.104;2023-07-20T19:48:42;22.50;69.30
15184;DHT22;7693;49.266;7.104;2023-07-20T19:51:07;22.40;69.60
15184;DHT22;7693;49.266;7.104;2023-07-20T19:53:33;22.30;69.70
15184;DHT22;7693;49.266;7.104;2023-07-20T19:56:00;22.30;69.80
15184;DHT22;7693;49.266;7.104;2023-07-20T19:58:27;22.20;70.00
15184;DHT22;7693;49.266;7.104;2023-07-20T20:00:52;22.10;70.30
15184;DHT22;7693;49.266;7.104;2023-07-20T20:03:18;22.10;70.60
15184;DHT22;7693;49.266;7.104;2023-07-20T20:05:44;22.00;70.70
15184;DHT22;7693;49.266;7.104;2023-07-20T20:08:09;22.00;70.70
15184;DHT22;7693;49.266;7.104;2023-07-20T20:10:36;22.00;70.90
15184;DHT22;7693;49.266;7.104;2023-07-20T20:13:02;22.00;71.10
15184;DHT22;7693;49.266;7.104;2023-07-20T20:15:28;21.90;71.10
15184;DHT22;7693;49.266;7.104;2023-07-20T20:17:55;21.90;72.10
15184;DHT22;7693;49.266;7.104;2023-07-20T20:20:22;21.90;71.40
15184;DHT22;7693;49.266;7.104;2023-07-20T20:22:48;21.80;71.40
15184;DHT22;7693;49.266;7.104;2023-07-20T20:25:13;21.80;71.50
15184;DHT22;7693;49.266;7.104;2023-07-20T20:27:39;21.80;71.80
15184;DHT22;7693;49.266;7.104;2023-07-20T20:30:06;21.70;71.90
15184;DHT22;7693;49.266;7.104;2023-07-20T20:32:32;21.70;72.00
15184;DHT22;7693;49.266;7.104;2023-07-20T20:35:03;21.70;72.00
15184;DHT22;7693;49.266;7.104;2023-07-20T20:37:29;21.60;71.90
15184;DHT22;7693;49.266;7.104;2023-07-20T20:39:55;21.60;72.10
15184;DHT22;7693;49.266;7.104;2023-07-20T20:42:21;21.50;72.10
15184;DHT22;7693;49.266;7.104;2023-07-20T20:44:47;21.50;72.20
15184;DHT22;7693;49.266;7.104;2023-07-20T20:47:13;21.40;72.40
15184;DHT22;7693;49.266;7.104;2023-07-20T20:49:41;21.40;72.60
15184;DHT22;7693;49.266;7.104;2023-07-20T20:52:11;21.40;72.60
15184;DHT22;7693;49.266;7.104;2023-07-20T20:54:37;21.30;72.80
15184;DHT22;7693;49.266;7.104;2023-07-20T20:57:03;21.30;72.80
15184;DHT22;7693;49.266;7.104;2023-07-20T20:59:29;21.30;72.90
15184;DHT22;7693;49.266;7.104;2023-07-20T21:01:54;21.20;72.90
15184;DHT22;7693;49.266;7.104;2023-07-20T21:04:20;21.20;73.00
15184;DHT22;7693;49.266;7.104;2023-07-20T21:06:45;21.20;73.20
15184;DHT22;7693;49.266;7.104;2023-07-20T21:09:11;21.20;73.20
15184;DHT22;7693;49.266;7.104;2023-07-20T21:11:36;21.20;73.40
15184;DHT22;7693;49.266;7.104;2023-07-20T21:14:02;21.10;73.30
15184;DHT22;7693;49.266;7.104;2023-07-20T21:16:28;21.10;73.20
15184;DHT22;7693;49.266;7.104;2023-07-20T21:18:53;21.10;73.40
15184;DHT22;7693;49.266;7.104;2023-07-20T21:21:19;21.00;73.50
15184;DHT22;7693;49.266;7.104;2023-07-20T21:23:44;21.00;73.50
15184;DHT22;7693;49.266;7.104;2023-07-20T21:26:10;20.90;73.70
15184;DHT22;7693;49.266;7.104;2023-07-20T21:28:36;20.90;73.70
15184;DHT22;7693;49.266;7.104;2023-07-20T21:31:07;20.80;73.80
15184;DHT22;7693;49.266;7.104;2023-07-20T21:33:33;20.80;74.10
15184;DHT22;7693;49.266;7.104;2023-07-20T21:35:59;20.70;74.00
15184;DHT22;7693;49.266;7.104;2023-07-20T21:38:26;20.70;74.10
15184;DHT22;7693;49.266;7.104;2023-07-20T21:40:52;20.60;74.20
15184;DHT22;7693;49.266;7.104;2023-07-20T21:43:17;20.50;74.30
15184;DHT22;7693;49.266;7.104;2023-07-20T21:45:46;20.50;74.50
15184;DHT22;7693;49.266;7.104;2023-07-20T21:48:11;20.50;74.70
15184;DHT22;7693;49.266;7.104;2023-07-20T21:50:38;20.40;74.80
15184;DHT22;7693;49.266;7.104;2023-07-20T21:53:07;20.40;75.00
15184;DHT22;7693;49.266;7.104;2023-07-20T21:55:32;20.30;75.90
15184;DHT22;7693;49.266;7.104;2023-07-20T21:57:58;20.30;75.10
15184;DHT22;7693;49.266;7.104;2023-07-20T22:00:23;20.30;75.30
15184;DHT22;7693;49.266;7.104;2023-07-20T22:02:49;20.20;75.30
15184;DHT22;7693;49.266;7.104;2023-07-20T22:05:15;20.20;75.40
15184;DHT22;7693;49.266;7.104;2023-07-20T22:07:42;20.20;75.50
15184;DHT22;7693;49.266;7.104;2023-07-20T22:10:08;20.20;75.50
15184;DHT22;7693;49.266;7.104;2023-07-20T22:12:34;20.10;75.40
15184;DHT22;7693;49.266;7.104;2023-07-20T22:15:00;20.10;75.40
15184;DHT22;7693;49.266;7.104;2023-07-20T22:17:25;20.00;75.40
15184;DHT22;7693;49.266;7.104;2023-07-20T22:19:51;20.00;75.60
15184;DHT22;7693;49.266;7.104;2023-07-20T22:22:17;19.90;75.70
15184;DHT22;7693;49.266;7.104;2023-07-20T22:24:43;19.90;75.90
15184;DHT22;7693;49.266;7.104;2023-07-20T22:27:09;19.80;75.90
15184;DHT22;7693;49.266;7.104;2023-07-20T22:29:35;19.70;76.10
15184;DHT22;7693;49.266;7.104;2023-07-20T22:32:04;19.70;76.40
15184;DHT22;7693;49.266;7.104;2023-07-20T22:34:30;19.70;76.60
15184;DHT22;7693;49.266;7.104;2023-07-20T22:36:58;19.70;76.70
15184;DHT22;7693;49.266;7.104;2023-07-20T22:39:25;19.60;76.80
15184;DHT22;7693;49.266;7.104;2023-07-20T22:41:50;19.60;76.90
15184;DHT22;7693;49.266;7.104;2023-07-20T22:44:16;19.50;76.80
15184;DHT22;7693;49.266;7.104;2023-07-20T22:46:42;19.50;76.90
15184;DHT22;7693;49.266;7.104;2023-07-20T22:49:07;19.40;77.20
